createdAt,value
2023-05-21T00:03:57.695Z,6.35
2023-05-21T00:09:01.106Z,7.40
2023-05-21T00:14:05.898Z,7.15
2023-05-21T00:19:10.415Z,6.55
2023-05-21T00:24:13.898Z,8.13
2023-05-21T00:29:19.644Z,8.02
2023-05-21T00:34:23.195Z,8.02
2023-05-21T00:39:27.634Z,7.13
2023-05-21T00:44:34.527Z,7.40
2023-05-21T00:49:39.037Z,7.80
2023-05-21T00:54:42.588Z,7.80
2023-05-21T00:59:48.054Z,7.25
2023-05-21T01:04:52.096Z,7.82
2023-05-21T01:10:04.976Z,7.75
2023-05-21T01:15:11.591Z,7.60
2023-05-21T01:20:18.386Z,7.20
2023-05-21T01:25:23.456Z,7.75
2023-05-21T01:30:27.211Z,7.70
2023-05-21T01:35:34.215Z,6.90
2023-05-21T01:40:43.625Z,7.60
2023-05-21T01:45:48.620Z,8.18
2023-05-21T01:50:53.121Z,7.43
2023-05-21T01:56:00.009Z,8.68
2023-05-21T02:01:04.669Z,8.73
2023-05-21T02:06:07.918Z,8.70
2023-05-21T02:11:12.709Z,6.97
2023-05-21T02:16:16.698Z,7.57
2023-05-21T02:21:20.791Z,8.70
2023-05-21T02:26:25.677Z,7.45
2023-05-21T02:31:29.282Z,9.25
2023-05-21T02:36:33.582Z,6.55
2023-05-21T02:41:38.331Z,10.57
2023-05-21T02:46:41.738Z,8.48
2023-05-21T02:51:45.025Z,8.48
2023-05-21T02:56:49.757Z,7.63
2023-05-21T03:01:53.228Z,7.70
2023-05-21T03:06:57.505Z,7.72
2023-05-21T03:12:02.251Z,8.32
2023-05-21T03:17:07.203Z,9.65
2023-05-21T03:22:11.522Z,7.55
2023-05-21T03:27:16.390Z,8.52
2023-05-21T03:32:19.912Z,8.38
2023-05-21T03:37:23.304Z,8.95
2023-05-21T03:42:28.489Z,9.40
2023-05-21T03:47:31.734Z,8.68
2023-05-21T03:52:35.018Z,8.35
2023-05-21T03:57:40.939Z,8.18
2023-05-21T04:02:44.606Z,8.55
2023-05-21T04:07:48.622Z,7.72
2023-05-21T04:12:53.737Z,7.88
2023-05-21T04:17:57.441Z,8.23
2023-05-21T04:23:01.307Z,8.55
2023-05-21T04:28:06.418Z,9.57
2023-05-21T04:33:12.754Z,8.85
2023-05-21T04:38:19.946Z,8.07
2023-05-21T04:43:26.275Z,7.63
2023-05-21T04:48:29.937Z,7.18
2023-05-21T04:53:34.036Z,7.97
2023-05-21T04:58:40.612Z,7.82
2023-05-21T05:03:44.073Z,7.90
2023-05-21T05:08:47.785Z,7.60
2023-05-21T05:13:53.813Z,7.55
2023-05-21T05:18:57.233Z,6.68
2023-05-21T05:24:00.610Z,7.00
2023-05-21T05:29:10.322Z,7.80
2023-05-21T05:34:13.633Z,7.97
2023-05-21T05:39:17.024Z,8.30
2023-05-21T05:44:23.286Z,7.28
2023-05-21T05:49:26.599Z,7.32
2023-05-21T05:54:29.999Z,7.35
2023-05-21T05:59:34.975Z,8.10
2023-05-21T06:04:38.101Z,7.38
2023-05-21T06:09:41.426Z,7.60
2023-05-21T06:14:46.283Z,7.00
2023-05-21T06:19:49.717Z,8.18
2023-05-21T06:24:53.101Z,8.23
2023-05-21T06:29:58.550Z,8.35
2023-05-21T06:35:02.345Z,6.75
2023-05-21T06:40:12.293Z,7.85
2023-05-21T06:45:18.865Z,7.22
2023-05-21T06:50:22.439Z,7.75
2023-05-21T06:55:27.037Z,8.18
2023-05-21T07:00:37.035Z,8.52
2023-05-21T07:05:40.669Z,8.18
2023-05-21T07:10:46.217Z,8.93
2023-05-21T07:15:51.475Z,8.95
2023-05-21T07:20:55.740Z,9.70
2023-05-21T07:26:00.741Z,10.13
2023-05-21T07:31:06.472Z,9.65
2023-05-21T07:36:11.175Z,10.00
2023-05-21T07:41:16.486Z,10.43
2023-05-21T07:46:22.635Z,10.02
2023-05-21T07:51:27.984Z,9.52
2023-05-21T07:56:32.454Z,9.68
2023-05-21T08:01:38.061Z,10.43
2023-05-21T08:06:43.035Z,9.73
2023-05-21T08:11:50.856Z,9.68
2023-05-21T08:16:58.681Z,9.38
2023-05-21T08:22:04.161Z,9.88
2023-05-21T08:27:11.237Z,8.05
2023-05-21T08:32:17.042Z,8.57
2023-05-21T08:37:21.598Z,8.82
2023-05-21T08:42:37.599Z,8.38
2023-05-21T08:47:48.554Z,8.63
2023-05-21T08:52:52.193Z,9.63
2023-05-21T08:57:59.456Z,9.63
2023-05-21T09:03:09.369Z,9.57
2023-05-21T09:08:22.360Z,7.60
2023-05-21T09:13:28.362Z,8.45
2023-05-21T09:18:33.159Z,7.60
2023-05-21T09:23:36.732Z,8.45
2023-05-21T09:28:40.233Z,8.60
2023-05-21T09:33:49.133Z,8.65
2023-05-21T09:38:53.785Z,9.43
2023-05-21T09:44:01.165Z,8.43
2023-05-21T09:49:07.479Z,9.23
2023-05-21T09:54:18.231Z,9.68
2023-05-21T09:59:23.876Z,10.38
2023-05-21T10:04:30.804Z,10.20
2023-05-21T10:09:38.759Z,10.73
2023-05-21T10:14:44.932Z,9.55
2023-05-21T10:19:52.761Z,10.70
2023-05-21T10:25:00.958Z,10.07
2023-05-21T10:30:08.399Z,10.65
2023-05-21T10:35:15.745Z,10.02
2023-05-21T10:40:19.718Z,10.63
2023-05-21T10:45:32.845Z,10.10
2023-05-21T10:51:03.790Z,9.45
2023-05-21T10:56:20.305Z,9.68
2023-05-21T11:01:24.390Z,10.40
2023-05-21T11:06:31.180Z,9.90
2023-05-21T11:11:54.011Z,9.13
2023-05-21T11:16:58.593Z,9.40
2023-05-21T11:22:06.236Z,9.70
2023-05-21T11:27:11.274Z,9.70
2023-05-21T11:32:17.679Z,10.43
2023-05-21T11:37:29.293Z,9.23
2023-05-21T11:42:37.573Z,8.77
2023-05-21T11:47:44.350Z,8.98
2023-05-21T11:52:51.344Z,8.57
2023-05-21T11:58:02.543Z,8.18
2023-05-21T12:03:32.554Z,7.72
2023-05-21T12:08:41.036Z,6.55
2023-05-21T12:13:46.075Z,7.35
2023-05-21T12:19:02.046Z,6.82
2023-05-21T12:24:10.268Z,6.57
2023-05-21T12:29:14.113Z,6.50
2023-05-21T12:34:29.703Z,6.15
2023-05-21T12:39:37.375Z,6.03
2023-05-21T12:44:49.434Z,6.05
2023-05-21T12:49:59.566Z,5.70
2023-05-21T12:55:10.611Z,5.55
2023-05-21T13:00:15.733Z,6.10
2023-05-21T13:05:23.225Z,5.93
2023-05-21T13:10:29.699Z,5.88
2023-05-21T13:15:35.856Z,5.78
2023-05-21T13:20:47.676Z,6.65
2023-05-21T13:25:54.800Z,6.07
2023-05-21T13:31:02.297Z,6.10
2023-05-21T13:36:14.167Z,6.28
2023-05-21T13:41:20.504Z,5.88
2023-05-21T13:46:26.256Z,5.60
2023-05-21T13:56:42.764Z,5.40
2023-05-21T14:01:50.147Z,5.43
2023-05-21T14:07:04.370Z,5.30
2023-05-21T14:12:19.442Z,5.78
2023-05-21T14:17:25.204Z,5.30
2023-05-21T14:22:32.130Z,5.50
2023-05-21T14:27:39.531Z,6.28
2023-05-21T14:33:08.762Z,5.25
2023-05-21T14:38:38.089Z,6.40
2023-05-21T14:43:46.958Z,5.22
2023-05-21T14:48:59.690Z,5.18
2023-05-21T14:54:06.357Z,5.88
2023-05-21T14:59:26.204Z,4.82
2023-05-21T15:04:31.720Z,4.75
2023-05-21T15:09:37.066Z,5.38
2023-05-21T15:14:43.959Z,4.78
2023-05-21T15:19:51.557Z,5.25
2023-05-21T15:25:06.205Z,4.90
2023-05-21T15:30:13.139Z,4.90
2023-05-21T15:35:17.390Z,5.05
2023-05-21T15:40:23.943Z,4.50
2023-05-21T15:45:34.595Z,5.38
2023-05-21T15:50:41.297Z,4.90
2023-05-21T15:55:48.615Z,5.05
2023-05-21T16:00:54.866Z,4.60
2023-05-21T16:06:00.818Z,4.97
2023-05-21T16:11:07.906Z,4.45
2023-05-21T16:16:13.361Z,4.18
2023-05-21T16:21:21.015Z,4.45
2023-05-21T16:26:26.501Z,4.15
2023-05-21T16:31:35.620Z,4.35
2023-05-21T16:36:52.037Z,5.32
2023-05-21T16:42:00.375Z,3.83
2023-05-21T16:47:06.629Z,3.85
2023-05-21T16:52:18.024Z,4.68
2023-05-21T16:57:23.502Z,7.13
2023-05-21T17:02:45.087Z,5.45
2023-05-21T17:07:58.363Z,3.83
2023-05-21T17:13:13.565Z,3.45
2023-05-21T17:18:31.043Z,4.10
2023-05-21T17:23:37.666Z,4.22
2023-05-21T17:28:43.372Z,3.42
2023-05-21T17:33:49.424Z,3.38
2023-05-21T17:38:54.509Z,4.22
2023-05-21T17:44:00.375Z,4.25
2023-05-21T17:49:07.915Z,4.22
2023-05-21T17:54:12.914Z,3.92
2023-05-21T17:59:18.498Z,3.53
2023-05-21T18:04:39.226Z,3.47
2023-05-21T18:10:02.447Z,3.47
2023-05-21T18:15:19.541Z,3.88
2023-05-21T18:20:40.429Z,3.42
2023-05-21T18:25:44.504Z,4.05
2023-05-21T18:30:48.429Z,4.40
2023-05-21T18:36:00.552Z,4.45
2023-05-21T18:41:07.186Z,5.03
2023-05-21T18:46:11.224Z,5.13
2023-05-21T18:51:29.831Z,4.63
2023-05-21T18:56:43.128Z,4.38
2023-05-21T19:01:49.598Z,5.45
2023-05-21T19:06:57.410Z,5.57
2023-05-21T19:12:02.408Z,5.15
2023-05-21T19:17:09.006Z,4.70
2023-05-21T19:22:16.072Z,5.10
2023-05-21T19:27:28.299Z,4.80
2023-05-21T19:32:44.843Z,4.82
2023-05-21T19:38:05.489Z,4.65
2023-05-21T19:43:13.101Z,4.68
2023-05-21T19:48:17.880Z,5.15
2023-05-21T19:53:29.351Z,5.43
2023-05-21T19:58:33.360Z,4.97
2023-05-21T20:03:39.373Z,4.90
2023-05-21T20:08:46.529Z,4.80
2023-05-21T20:13:55.981Z,6.55
2023-05-21T20:19:02.367Z,6.45
2023-05-21T20:24:09.286Z,5.35
2023-05-21T20:29:19.127Z,5.40
2023-05-21T20:34:26.469Z,6.07
2023-05-21T20:39:33.311Z,5.43
2023-05-21T20:44:36.821Z,5.15
2023-05-21T20:49:42.431Z,5.22
2023-05-21T20:54:51.651Z,5.63
2023-05-21T20:59:56.393Z,5.95
2023-05-21T21:05:00.159Z,6.50
2023-05-21T21:10:08.375Z,5.80
2023-05-21T21:15:13.112Z,5.95
2023-05-21T21:20:17.923Z,6.05
2023-05-21T21:25:22.996Z,5.63
2023-05-21T21:30:28.569Z,5.53
2023-05-21T21:35:33.160Z,5.45
2023-05-21T21:40:51.937Z,5.15
2023-05-21T21:45:57.541Z,4.85
2023-05-21T21:51:02.364Z,4.93
2023-05-21T21:56:07.909Z,5.50
2023-05-21T22:01:11.393Z,5.70
2023-05-21T22:06:14.938Z,5.43
2023-05-21T22:11:21.119Z,5.00
2023-05-21T22:16:25.392Z,4.55
2023-05-21T22:21:33.222Z,4.60
2023-05-21T22:26:41.138Z,4.07
2023-05-21T22:31:47.898Z,4.63
2023-05-21T22:36:51.432Z,5.28
2023-05-21T22:41:58.501Z,5.30
2023-05-21T22:47:03.510Z,4.82
2023-05-21T22:52:09.469Z,4.90
2023-05-21T22:57:15.653Z,4.72
2023-05-21T23:02:25.462Z,4.53
2023-05-21T23:07:29.074Z,4.95
2023-05-21T23:12:35.083Z,4.38
2023-05-21T23:17:48.437Z,4.93
2023-05-21T23:22:54.176Z,4.88
2023-05-21T23:28:04.539Z,5.15
2023-05-21T23:33:08.142Z,5.68
2023-05-21T23:38:11.673Z,4.38
2023-05-21T23:43:17.913Z,4.97
2023-05-21T23:48:23.441Z,5.30
2023-05-21T23:53:27.129Z,5.57
2023-05-21T23:58:40.236Z,4.53
